Time;durP1;ratioP1;P1;durP2;ratioP2;P2;SDS_P1;SDS_P2;PMS_P1;PMS_P2;Temp;Humidity;BMP_temperature;BMP_pressure;BME280_temperature;BME280_humidity;BME280_pressure;Samples;Min_cycle;Max_cycle;Signal;HPM_P1;HPM_P2
2023/01/19 00:00:00;;;;;;;11.13;5.80;;;3.00;64.90;;;;;;5015851;28;20018;-63
2023/01/19 00:02:26;;;;;;;10.15;5.30;;;3.00;65.10;;;;;;5015339;28;20029;-63
2023/01/19 00:04:51;;;;;;;8.82;5.25;;;2.90;65.10;;;;;;5009602;28;20060;-63
2023/01/19 00:07:18;;;;;;;9.40;4.88;;;2.90;65.20;;;;;;5006077;28;20065;-64
2023/01/19 00:09:44;;;;;;;8.00;4.95;;;2.90;65.30;;;;;;5010697;28;20042;-64
2023/01/19 00:12:10;;;;;;;13.82;5.35;;;3.20;65.40;;;;;;5015169;28;20029;-64
2023/01/19 00:14:35;;;;;;;7.07;4.72;;;2.80;65.20;;;;;;5003877;28;20103;-63
2023/01/19 00:17:01;;;;;;;9.20;5.15;;;2.70;65.20;;;;;;5016661;28;20037;-63
2023/01/19 00:19:27;;;;;;;9.45;4.75;;;3.00;65.40;;;;;;5016747;28;20056;-64
2023/01/19 00:21:54;;;;;;;8.93;4.40;;;2.60;65.20;;;;;;5014023;28;20484;-62
2023/01/19 00:24:29;;;;;;;9.82;5.13;;;2.60;65.40;;;;;;5008035;28;20040;-63
2023/01/19 00:27:00;;;;;;;6.57;4.68;;;2.60;65.40;;;;;;5015327;28;20046;-62
2023/01/19 00:29:29;;;;;;;8.68;4.93;;;2.50;65.40;;;;;;5018480;28;20037;-63
2023/01/19 00:31:55;;;;;;;11.38;5.22;;;2.50;65.40;;;;;;5015106;28;20033;-63
2023/01/19 00:34:20;;;;;;;8.57;5.22;;;2.40;65.40;;;;;;5005658;28;20022;-62
2023/01/19 00:36:46;;;;;;;7.68;5.50;;;2.30;65.40;;;;;;5008960;28;20049;-64
2023/01/19 00:39:12;;;;;;;9.80;5.07;;;2.30;65.40;;;;;;5010952;28;20639;-64
2023/01/19 00:44:22;;;;;;;9.93;5.10;;;2.20;65.30;;;;;;5016220;28;20041;-63
2023/01/19 00:46:47;;;;;;;10.38;5.50;;;2.10;65.50;;;;;;5003298;28;20038;-63
2023/01/19 00:49:13;;;;;;;10.02;5.07;;;2.00;65.50;;;;;;4990893;28;20125;-62
2023/01/19 00:51:38;;;;;;;8.35;5.55;;;2.10;65.60;;;;;;4995545;28;20578;-63
2023/01/19 00:54:04;;;;;;;11.27;6.20;;;1.90;65.50;;;;;;5016887;28;20065;-62
2023/01/19 00:56:31;;;;;;;9.43;5.13;;;1.80;65.60;;;;;;5010268;28;20022;-63
2023/01/19 00:58:56;;;;;;;9.05;5.40;;;1.80;65.70;;;;;;5004180;28;20129;-62
2023/01/19 01:01:22;;;;;;;9.18;5.72;;;1.70;65.70;;;;;;5005439;28;20058;-64
2023/01/19 01:03:48;;;;;;;9.20;4.90;;;1.80;65.90;;;;;;5007171;28;20038;-64
2023/01/19 01:06:13;;;;;;;8.95;5.25;;;1.70;65.90;;;;;;5008311;28;20032;-62
2023/01/19 01:08:39;;;;;;;8.77;5.47;;;1.50;65.90;;;;;;5012651;28;20026;-63
2023/01/19 01:11:04;;;;;;;11.40;5.65;;;1.50;66.00;;;;;;5012702;28;20117;-64
2023/01/19 01:13:30;;;;;;;8.88;5.78;;;1.40;66.20;;;;;;4997506;28;20418;-64
2023/01/19 01:15:56;;;;;;;8.40;5.22;;;1.40;66.30;;;;;;5012493;28;20053;-64
2023/01/19 01:18:23;;;;;;;9.43;6.07;;;1.30;66.30;;;;;;5009928;28;20049;-64
2023/01/19 01:20:49;;;;;;;10.40;5.25;;;1.30;66.40;;;;;;5011669;28;20583;-62
2023/01/19 01:23:14;;;;;;;10.77;5.82;;;1.30;66.50;;;;;;5012373;28;20030;-64
2023/01/19 01:25:41;;;;;;;9.15;5.60;;;1.30;66.60;;;;;;5020362;28;20030;-63
2023/01/19 01:28:08;;;;;;;7.00;5.03;;;1.20;66.50;;;;;;5007049;28;20058;-63
2023/01/19 01:30:38;;;;;;;9.48;5.65;;;1.30;66.40;;;;;;5005509;28;20065;-63
2023/01/19 01:33:04;;;;;;;16.77;5.95;;;1.20;66.30;;;;;;5011765;28;20022;-62
2023/01/19 01:35:31;;;;;;;8.00;5.18;;;1.10;66.30;;;;;;5009887;28;20040;-63
2023/01/19 01:37:57;;;;;;;12.85;5.93;;;1.10;66.40;;;;;;5007879;28;20030;-62
2023/01/19 01:40:23;;;;;;;8.23;5.13;;;1.10;66.40;;;;;;5015327;28;20392;-64
2023/01/19 01:42:49;;;;;;;8.68;5.18;;;1.10;66.40;;;;;;5018924;28;20085;-63
2023/01/19 01:45:37;;;;;;;10.25;5.82;;;1.10;66.40;;;;;;5005755;28;20058;-63
2023/01/19 01:48:14;;;;;;;8.32;5.07;;;1.00;66.40;;;;;;5009447;28;20095;-63
2023/01/19 01:51:22;;;;;;;11.50;5.28;;;0.90;66.20;;;;;;5015473;28;20022;-62
2023/01/19 01:53:54;;;;;;;7.85;5.13;;;0.90;66.10;;;;;;4961446;28;20031;-63
2023/01/19 01:56:30;;;;;;;8.13;5.15;;;0.80;66.10;;;;;;4963660;28;20039;-63
2023/01/19 01:58:57;;;;;;;9.25;4.90;;;0.80;66.20;;;;;;4962417;28;20177;-62
2023/01/19 02:04:07;;;;;;;9.90;5.15;;;0.70;66.40;;;;;;4959927;29;20094;-62
2023/01/19 02:06:33;;;;;;;8.05;5.20;;;0.70;66.30;;;;;;4963388;29;20261;-64
2023/01/19 02:14:37;;;;;;;12.85;5.25;;;0.50;66.10;;;;;;4968613;28;20069;-62
2023/01/19 02:17:04;;;;;;;10.10;5.35;;;0.50;66.20;;;;;;4966576;28;20035;-62
2023/01/19 02:19:38;;;;;;;6.85;5.07;;;0.50;66.40;;;;;;4882071;29;20106;-63
2023/01/19 02:22:12;;;;;;;8.73;5.30;;;0.40;66.40;;;;;;4966791;29;20086;-63
2023/01/19 02:24:38;;;;;;;11.45;5.13;;;0.40;66.40;;;;;;4963073;29;20040;-62
2023/01/19 02:27:05;;;;;;;9.55;5.60;;;0.30;66.40;;;;;;4975102;28;20041;-63
2023/01/19 02:29:32;;;;;;;11.02;6.18;;;0.40;66.60;;;;;;5019066;28;20052;-63
2023/01/19 02:31:58;;;;;;;10.10;6.07;;;0.40;66.80;;;;;;5018031;28;20018;-63
2023/01/19 02:34:24;;;;;;;9.40;6.20;;;0.20;66.90;;;;;;5018665;28;20037;-62
2023/01/19 02:36:52;;;;;;;11.25;6.30;;;0.20;67.00;;;;;;5008485;28;20029;-64
2023/01/19 02:39:30;;;;;;;9.25;5.35;;;0.20;67.10;;;;;;5007174;28;20034;-63
2023/01/19 02:42:01;;;;;;;10.55;5.80;;;0.20;67.10;;;;;;5013782;28;20141;-63
2023/01/19 02:44:29;;;;;;;9.82;5.97;;;0.20;67.10;;;;;;5010877;28;20030;-63
2023/01/19 02:46:56;;;;;;;11.50;5.88;;;0.40;67.10;;;;;;5019353;28;20594;-63
2023/01/19 02:49:22;;;;;;;9.15;5.80;;;0.20;66.90;;;;;;5017069;28;20103;-62
2023/01/19 02:51:49;;;;;;;8.70;5.43;;;0.10;67.50;;;;;;5014496;28;20487;-64
2023/01/19 02:54:35;;;;;;;9.23;5.57;;;0.10;66.80;;;;;;5015515;28;20104;-63
2023/01/19 02:57:26;;;;;;;11.90;5.53;;;0.10;67.40;;;;;;5013240;28;20033;-63
2023/01/19 03:00:06;;;;;;;12.07;5.57;;;0.00;66.70;;;;;;5013823;28;20117;-65
2023/01/19 03:03:09;;;;;;;9.85;5.88;;;0.10;66.80;;;;;;5013492;28;20049;-62
2023/01/19 03:05:40;;;;;;;11.10;5.85;;;0.00;66.70;;;;;;5015862;28;20036;-63
2023/01/19 03:08:25;;;;;;;7.13;5.07;;;-0.10;66.60;;;;;;5020110;28;20044;-63
2023/01/19 03:11:09;;;;;;;12.48;4.97;;;-0.10;66.80;;;;;;5014208;28;20137;-62
2023/01/19 03:13:47;;;;;;;11.73;5.75;;;-0.20;66.70;;;;;;5018880;28;20025;-62
2023/01/19 03:16:20;;;;;;;10.35;6.30;;;-0.20;66.60;;;;;;5015224;28;20492;-63
2023/01/19 03:18:52;;;;;;;7.25;4.45;;;-0.20;66.70;;;;;;4931395;28;20056;-64
2023/01/19 03:21:20;;;;;;;9.70;5.57;;;-0.30;66.70;;;;;;5015338;28;20018;-63
2023/01/19 03:23:46;;;;;;;11.07;5.82;;;-0.30;66.80;;;;;;5017146;28;20033;-62
2023/01/19 03:26:18;;;;;;;11.32;5.75;;;-0.40;66.90;;;;;;5014212;28;20100;-63
2023/01/19 03:28:47;;;;;;;8.63;5.38;;;-0.40;66.90;;;;;;5012926;28;20113;-63
2023/01/19 03:31:20;;;;;;;8.77;5.53;;;-0.40;67.00;;;;;;5010051;28;20038;-65
2023/01/19 03:33:53;;;;;;;8.45;5.35;;;-0.30;67.20;;;;;;5007702;28;20030;-63
2023/01/19 03:36:29;;;;;;;9.98;5.72;;;-0.50;67.10;;;;;;5010098;28;20022;-64
2023/01/19 03:38:57;;;;;;;12.25;6.25;;;-0.50;67.20;;;;;;5004702;28;20049;-62
2023/01/19 03:41:24;;;;;;;12.13;6.82;;;-0.50;67.20;;;;;;5018415;28;20072;-63
2023/01/19 03:43:52;;;;;;;11.18;6.30;;;-0.60;67.10;;;;;;5012430;28;20034;-62
2023/01/19 03:46:19;;;;;;;19.70;8.20;;;-0.60;67.10;;;;;;5014702;28;20113;-63
2023/01/19 03:48:46;;;;;;;11.20;6.78;;;-0.60;67.20;;;;;;5017334;28;20490;-63
2023/01/19 03:51:13;;;;;;;15.23;5.90;;;-0.70;67.10;;;;;;5015173;28;20041;-63
2023/01/19 03:53:39;;;;;;;11.85;6.32;;;-0.50;67.10;;;;;;5010794;28;20041;-62
2023/01/19 03:56:07;;;;;;;12.50;6.63;;;-0.70;67.00;;;;;;5014539;28;20050;-62
2023/01/19 03:58:33;;;;;;;14.27;7.13;;;-0.80;67.70;;;;;;5003246;28;20038;-63
2023/01/19 04:00:58;;;;;;;12.70;6.47;;;-0.80;67.00;;;;;;5016416;28;20037;-62
2023/01/19 04:03:24;;;;;;;15.13;6.28;;;-0.80;67.10;;;;;;5018193;28;20030;-62
2023/01/19 04:05:55;;;;;;;10.13;6.35;;;-0.90;67.10;;;;;;5001459;28;20038;-63
2023/01/19 04:08:20;;;;;;;12.13;6.45;;;-0.90;67.20;;;;;;5009839;28;20026;-63
2023/01/19 04:10:46;;;;;;;9.30;5.50;;;-0.70;67.30;;;;;;5011827;28;20034;-63
2023/01/19 04:13:12;;;;;;;13.23;6.88;;;-0.90;67.30;;;;;;5017561;28;20114;-62
2023/01/19 04:15:37;;;;;;;11.15;6.15;;;-0.80;67.40;;;;;;5013209;28;20038;-62
2023/01/19 04:18:04;;;;;;;9.88;5.88;;;-1.00;67.30;;;;;;5008966;28;20139;-63
2023/01/19 04:20:30;;;;;;;10.55;5.63;;;-1.00;67.30;;;;;;5016362;28;20670;-63
2023/01/19 04:22:59;;;;;;;13.05;6.75;;;-1.00;67.30;;;;;;4991445;28;20034;-62
2023/01/19 04:25:26;;;;;;;13.05;6.45;;;-1.00;67.40;;;;;;5013384;28;20026;-62
2023/01/19 04:27:53;;;;;;;10.75;6.20;;;-0.90;67.50;;;;;;5012988;28;21410;-62
2023/01/19 04:30:20;;;;;;;11.55;5.95;;;-0.90;67.50;;;;;;5019332;28;20022;-62
2023/01/19 04:32:45;;;;;;;9.65;6.13;;;-1.10;67.30;;;;;;5007246;28;20026;-62
2023/01/19 04:35:11;;;;;;;10.82;6.10;;;-1.10;67.40;;;;;;5017942;28;20114;-62
2023/01/19 04:37:37;;;;;;;8.90;6.28;;;-1.20;67.30;;;;;;5016705;28;20088;-64
2023/01/19 04:40:03;;;;;;;10.88;6.22;;;-1.00;67.40;;;;;;5005825;28;20105;-62
2023/01/19 04:42:28;;;;;;;8.60;5.50;;;-1.20;67.30;;;;;;5014493;28;20132;-62
2023/01/19 04:44:54;;;;;;;11.82;6.05;;;-1.20;67.30;;;;;;5007160;28;20026;-62
2023/01/19 04:47:20;;;;;;;10.70;5.68;;;-1.20;67.20;;;;;;5015215;28;20109;-62
2023/01/19 04:49:45;;;;;;;11.80;6.72;;;-1.20;67.20;;;;;;5011361;28;20037;-62
2023/01/19 04:52:11;;;;;;;11.43;6.30;;;-1.20;67.30;;;;;;5008238;28;20194;-62
2023/01/19 04:54:36;;;;;;;10.40;6.07;;;-1.20;67.40;;;;;;5015664;28;20076;-63
2023/01/19 04:57:02;;;;;;;11.52;6.43;;;-1.30;67.40;;;;;;5010788;28;20100;-64
2023/01/19 04:59:28;;;;;;;14.15;6.63;;;-1.30;67.50;;;;;;5015213;28;20030;-64
2023/01/19 05:01:55;;;;;;;9.35;6.28;;;-1.30;67.60;;;;;;5013750;28;20022;-62
2023/01/19 05:04:21;;;;;;;13.38;6.97;;;-1.30;67.70;;;;;;5008739;28;20029;-63
2023/01/19 05:06:47;;;;;;;11.35;7.10;;;-1.30;67.70;;;;;;5010394;28;20034;-62
2023/01/19 05:09:14;;;;;;;13.95;6.38;;;-1.30;67.40;;;;;;5010918;28;20061;-62
2023/01/19 05:11:40;;;;;;;10.52;6.13;;;-1.30;67.40;;;;;;5006664;28;20037;-63
2023/01/19 05:14:05;;;;;;;13.23;7.20;;;-1.40;67.20;;;;;;5016146;28;20021;-62
2023/01/19 05:16:31;;;;;;;11.30;6.90;;;-1.40;67.20;;;;;;5003124;28;20051;-63
2023/01/19 05:18:57;;;;;;;14.70;8.95;;;-1.40;67.10;;;;;;4923701;28;20050;-64
2023/01/19 05:21:23;;;;;;;17.70;9.27;;;-1.40;67.00;;;;;;5011693;28;20032;-63
2023/01/19 05:23:48;;;;;;;15.23;8.45;;;-1.40;67.00;;;;;;5010331;28;20026;-62
2023/01/19 05:26:14;;;;;;;13.57;8.00;;;-1.40;67.00;;;;;;5014627;28;20501;-62
2023/01/19 05:28:40;;;;;;;16.42;7.35;;;-1.50;67.00;;;;;;5011121;28;20022;-62
2023/01/19 05:31:05;;;;;;;10.38;6.65;;;-1.50;67.00;;;;;;5013277;28;20038;-63
2023/01/19 05:33:31;;;;;;;13.30;7.13;;;-1.50;67.10;;;;;;5008427;28;20037;-62
2023/01/19 05:35:57;;;;;;;24.38;13.07;;;-1.50;67.20;;;;;;5010798;28;20033;-62
2023/01/19 05:38:23;;;;;;;26.73;14.10;;;-1.50;67.20;;;;;;5007999;28;20041;-62
2023/01/19 05:40:55;;;;;;;31.23;13.93;;;-1.50;67.30;;;;;;5007267;28;20034;-63
2023/01/19 05:43:20;;;;;;;26.55;13.73;;;-1.50;67.20;;;;;;5011691;28;20084;-62
2023/01/19 05:45:46;;;;;;;21.23;11.23;;;-1.60;66.90;;;;;;5012244;28;20026;-63
2023/01/19 05:48:11;;;;;;;16.25;9.50;;;-1.60;66.90;;;;;;5013139;28;20441;-63
2023/01/19 05:50:37;;;;;;;13.30;8.68;;;-1.60;66.90;;;;;;5020890;28;20026;-62
2023/01/19 05:53:03;;;;;;;20.02;9.65;;;-1.50;67.00;;;;;;5016395;28;20053;-62
2023/01/19 05:55:28;;;;;;;20.48;11.13;;;-1.60;66.90;;;;;;5012947;28;20060;-62
2023/01/19 05:57:54;;;;;;;22.42;10.82;;;-1.70;66.90;;;;;;5011896;28;20081;-62
2023/01/19 06:00:20;;;;;;;20.10;9.55;;;-1.60;67.00;;;;;;5015066;28;20037;-62
2023/01/19 06:02:48;;;;;;;14.90;8.13;;;-1.60;66.90;;;;;;5009018;28;20033;-62
2023/01/19 06:05:14;;;;;;;17.85;9.23;;;-1.70;66.90;;;;;;5015197;28;20034;-63
2023/01/19 06:07:40;;;;;;;14.43;8.20;;;-1.70;67.00;;;;;;5013586;28;20027;-62
2023/01/19 06:10:06;;;;;;;15.32;8.25;;;-1.70;67.00;;;;;;5021217;28;20037;-62
2023/01/19 06:12:32;;;;;;;16.60;8.35;;;-1.70;67.20;;;;;;5009887;28;20033;-63
2023/01/19 06:14:58;;;;;;;14.00;7.60;;;-1.60;67.40;;;;;;5018431;28;20388;-62
2023/01/19 06:17:23;;;;;;;19.15;8.48;;;-1.80;67.30;;;;;;5014548;28;20010;-62
2023/01/19 06:19:50;;;;;;;12.82;7.97;;;-1.80;67.30;;;;;;4995495;28;20085;-62
2023/01/19 06:22:16;;;;;;;18.70;8.30;;;-1.80;67.20;;;;;;4997508;28;20026;-62
2023/01/19 06:24:42;;;;;;;14.18;8.48;;;-1.80;67.20;;;;;;4995708;28;20042;-63
2023/01/19 06:27:08;;;;;;;13.77;7.60;;;-1.80;67.20;;;;;;4989846;28;20030;-63
2023/01/19 06:29:33;;;;;;;18.40;8.27;;;-1.80;67.20;;;;;;4995531;28;20042;-64
2023/01/19 06:31:59;;;;;;;9.95;7.22;;;-1.80;67.20;;;;;;4998438;28;20041;-62
2023/01/19 06:34:27;;;;;;;17.23;7.78;;;-1.80;67.30;;;;;;4996647;28;20045;-62
2023/01/19 06:36:55;;;;;;;13.48;6.65;;;-1.80;67.40;;;;;;4990473;28;20031;-62
2023/01/19 06:39:21;;;;;;;12.27;6.45;;;-1.90;67.30;;;;;;4978693;28;20045;-62
2023/01/19 06:44:25;;;;;;;10.23;6.40;;;-1.90;67.60;;;;;;5376127;23;20058;-61
2023/01/19 06:46:50;;;;;;;11.23;6.55;;;-1.90;67.60;;;;;;5019375;28;20093;-61
2023/01/19 06:49:16;;;;;;;11.98;7.18;;;-1.90;67.60;;;;;;5021628;28;20033;-61
2023/01/19 06:51:42;;;;;;;9.63;5.88;;;-1.90;67.70;;;;;;5018175;28;20036;-61
2023/01/19 06:54:08;;;;;;;13.63;5.85;;;-1.90;67.80;;;;;;5002637;28;20045;-61
2023/01/19 06:56:33;;;;;;;12.65;7.28;;;-1.90;67.60;;;;;;5015081;28;20038;-61
2023/01/19 06:58:59;;;;;;;13.80;6.88;;;-2.00;67.50;;;;;;5016329;28;20096;-61
2023/01/19 07:01:25;;;;;;;12.35;6.78;;;-2.00;67.70;;;;;;5022360;28;20030;-61
2023/01/19 07:03:51;;;;;;;12.57;6.30;;;-1.90;67.90;;;;;;5019247;28;20090;-62
2023/01/19 07:06:17;;;;;;;13.38;6.55;;;-1.90;68.00;;;;;;5010473;28;20023;-61
2023/01/19 07:08:43;;;;;;;11.68;6.47;;;-1.90;68.10;;;;;;5010091;28;20064;-62
2023/01/19 07:11:10;;;;;;;10.65;6.45;;;-1.90;68.00;;;;;;5009566;28;20089;-61
2023/01/19 07:13:37;;;;;;;10.95;6.70;;;-1.90;67.80;;;;;;5016458;28;20490;-61
2023/01/19 07:16:05;;;;;;;12.15;6.70;;;-1.90;67.70;;;;;;5018555;28;20030;-61
2023/01/19 07:18:31;;;;;;;13.35;6.55;;;-1.90;67.60;;;;;;5014102;28;20080;-61
2023/01/19 07:20:57;;;;;;;10.77;5.97;;;-1.90;67.60;;;;;;5012040;28;20128;-61
2023/01/19 07:23:23;;;;;;;10.60;5.97;;;-1.90;67.50;;;;;;5019858;28;20026;-62
2023/01/19 07:25:48;;;;;;;12.23;6.68;;;-1.90;67.50;;;;;;5019377;28;20032;-61
2023/01/19 07:28:15;;;;;;;11.00;6.78;;;-1.90;67.60;;;;;;5019541;28;20038;-61
2023/01/19 07:30:45;;;;;;;10.77;6.72;;;-2.00;67.60;;;;;;5015933;28;20034;-61
2023/01/19 07:33:11;;;;;;;12.30;6.65;;;-2.00;67.60;;;;;;5009353;28;20173;-61
2023/01/19 07:35:37;;;;;;;12.23;6.88;;;-2.00;67.60;;;;;;5016219;28;20030;-61
2023/01/19 07:38:03;;;;;;;9.60;6.45;;;-1.90;67.60;;;;;;5015223;28;20066;-61
2023/01/19 07:40:28;;;;;;;12.88;6.72;;;-2.00;67.50;;;;;;5021104;28;20045;-61
2023/01/19 07:42:54;;;;;;;12.48;6.95;;;-1.90;67.60;;;;;;5015310;28;20064;-61
2023/01/19 07:45:20;;;;;;;16.05;6.63;;;-1.90;67.60;;;;;;5035404;28;20048;-61
2023/01/19 07:47:47;;;;;;;16.58;7.93;;;-1.70;67.80;;;;;;5032775;28;20037;-61
2023/01/19 07:50:14;;;;;;;12.35;6.55;;;-1.90;67.50;;;;;;5036246;28;20014;-62
2023/01/19 07:52:41;;;;;;;12.93;7.10;;;-1.80;67.50;;;;;;5027725;28;20042;-62
2023/01/19 07:55:07;;;;;;;12.35;7.68;;;-1.90;67.30;;;;;;5041356;28;20061;-60
2023/01/19 07:57:34;;;;;;;13.27;6.90;;;-1.80;67.30;;;;;;5032861;28;20029;-62
2023/01/19 07:59:59;;;;;;;10.45;6.60;;;-1.80;67.40;;;;;;5032123;28;20029;-61
2023/01/19 08:02:25;;;;;;;12.85;6.30;;;-1.80;67.50;;;;;;5030559;28;20498;-60
2023/01/19 08:04:51;;;;;;;14.38;6.47;;;-1.70;67.80;;;;;;5025733;28;20049;-62
2023/01/19 08:07:17;;;;;;;11.25;6.75;;;-1.70;68.00;;;;;;5033292;28;20898;-61
2023/01/19 08:09:43;;;;;;;12.10;7.18;;;-1.70;67.80;;;;;;5028847;28;20053;-61
2023/01/19 08:12:08;;;;;;;11.40;7.20;;;-1.60;67.80;;;;;;5033289;28;20037;-61
2023/01/19 08:14:34;;;;;;;12.98;7.15;;;-1.60;67.80;;;;;;5031948;28;20030;-61
2023/01/19 08:17:01;;;;;;;12.52;7.50;;;-1.50;67.60;;;;;;5028962;28;20671;-62
2023/01/19 08:19:26;;;;;;;12.63;7.47;;;-1.50;67.40;;;;;;5036527;28;20037;-61
2023/01/19 08:21:53;;;;;;;12.30;7.20;;;-1.40;67.40;;;;;;5034703;28;20018;-61
2023/01/19 08:24:21;;;;;;;17.45;9.10;;;-1.40;67.40;;;;;;5034395;28;20092;-62
2023/01/19 08:26:47;;;;;;;17.42;8.90;;;-1.30;67.40;;;;;;5033524;28;20029;-62
2023/01/19 08:29:13;;;;;;;14.23;8.98;;;-1.20;67.50;;;;;;5033764;28;20033;-61
2023/01/19 08:31:39;;;;;;;18.27;8.82;;;-1.10;67.50;;;;;;5029885;28;20045;-61
2023/01/19 08:34:04;;;;;;;18.25;9.30;;;-1.10;67.50;;;;;;5031438;28;20180;-62
2023/01/19 08:36:30;;;;;;;17.98;9.10;;;-1.00;67.50;;;;;;5028165;28;20447;-62
2023/01/19 08:38:56;;;;;;;18.98;10.07;;;-0.90;67.80;;;;;;5035122;28;20086;-61
2023/01/19 08:41:22;;;;;;;17.77;9.25;;;-0.80;68.00;;;;;;5036351;28;20025;-61
2023/01/19 08:43:48;;;;;;;19.48;9.40;;;-0.70;68.10;;;;;;5031028;28;20069;-62
2023/01/19 08:46:20;;;;;;;15.40;8.50;;;-0.60;68.20;;;;;;5032847;28;20029;-61
2023/01/19 08:48:47;;;;;;;16.20;8.43;;;-0.40;68.30;;;;;;5035273;28;20030;-63
2023/01/19 08:51:14;;;;;;;19.27;8.65;;;-0.30;68.40;;;;;;5032719;28;20059;-61
2023/01/19 08:53:41;;;;;;;18.17;8.23;;;-0.10;68.30;;;;;;5021985;28;20028;-61
2023/01/19 08:56:11;;;;;;;14.38;8.18;;;0.00;68.20;;;;;;5032099;28;20054;-62
2023/01/19 08:58:41;;;;;;;14.80;7.68;;;0.10;68.00;;;;;;5032046;28;20042;-62
2023/01/19 09:01:08;;;;;;;12.25;6.95;;;0.30;67.90;;;;;;5037549;28;20032;-63
2023/01/19 09:03:36;;;;;;;14.77;8.10;;;0.40;67.60;;;;;;5035242;28;20148;-61
2023/01/19 09:06:06;;;;;;;13.27;7.38;;;0.50;67.60;;;;;;5028990;28;20034;-63
2023/01/19 09:08:32;;;;;;;13.15;8.02;;;0.50;67.50;;;;;;5032037;28;20049;-61
2023/01/19 09:10:58;;;;;;;15.65;7.65;;;0.60;67.50;;;;;;5028839;28;20026;-61
2023/01/19 09:13:23;;;;;;;21.15;8.63;;;0.80;67.60;;;;;;5024214;28;20029;-61
2023/01/19 09:15:50;;;;;;;15.43;7.68;;;0.80;67.50;;;;;;5015785;28;20061;-61
2023/01/19 09:18:21;;;;;;;14.77;8.25;;;0.90;67.70;;;;;;5027734;28;20067;-60
2023/01/19 09:20:48;;;;;;;16.45;7.78;;;1.20;67.80;;;;;;5028315;28;20033;-60
2023/01/19 09:23:17;;;;;;;14.20;7.65;;;1.10;67.50;;;;;;5035946;28;20064;-60
2023/01/19 09:25:44;;;;;;;12.30;7.07;;;1.20;67.50;;;;;;5031892;28;20112;-60
2023/01/19 09:28:13;;;;;;;12.48;7.90;;;1.30;67.40;;;;;;5028713;28;20018;-59
2023/01/19 09:30:40;;;;;;;12.88;7.90;;;1.40;67.20;;;;;;5035556;28;20036;-62
2023/01/19 09:33:10;;;;;;;13.80;8.45;;;1.50;67.20;;;;;;5011192;28;20037;-60
2023/01/19 09:35:37;;;;;;;14.45;8.48;;;1.60;67.20;;;;;;5030494;28;20056;-63
2023/01/19 09:38:03;;;;;;;15.75;8.30;;;1.70;67.20;;;;;;5028384;28;20030;-60
2023/01/19 09:40:30;;;;;;;17.08;7.90;;;1.80;66.90;;;;;;5012947;28;20044;-59
2023/01/19 09:43:03;;;;;;;13.95;7.50;;;1.90;66.60;;;;;;5030492;28;20043;-60
2023/01/19 09:46:10;;;;;;;13.80;7.77;;;1.90;66.40;;;;;;5029516;28;20026;-59
2023/01/19 09:48:48;;;;;;;13.93;7.65;;;2.00;66.00;;;;;;5016950;28;20036;-60
2023/01/19 09:51:23;;;;;;;10.77;6.45;;;2.00;66.30;;;;;;5028060;28;20045;-60
2023/01/19 09:54:28;;;;;;;12.07;6.60;;;2.10;66.50;;;;;;5032001;28;20049;-60
2023/01/19 09:56:54;;;;;;;10.32;5.82;;;2.20;66.40;;;;;;5009837;28;20071;-60
2023/01/19 09:59:29;;;;;;;12.00;7.13;;;2.30;66.50;;;;;;5028139;28;20045;-60
2023/01/19 10:02:35;;;;;;;8.77;5.75;;;2.40;66.30;;;;;;5024757;28;20794;-59
2023/01/19 10:05:04;;;;;;;8.25;5.20;;;2.50;66.10;;;;;;5028209;28;20029;-60
2023/01/19 10:07:52;;;;;;;12.90;6.30;;;2.70;66.30;;;;;;5032729;28;20045;-60
2023/01/19 10:10:21;;;;;;;9.77;5.93;;;2.70;66.00;;;;;;5026045;28;20057;-59
2023/01/19 10:13:18;;;;;;;9.88;5.88;;;2.80;65.80;;;;;;5027919;28;20029;-59
2023/01/19 10:15:59;;;;;;;8.88;5.63;;;2.90;65.30;;;;;;5033899;28;20025;-59
2023/01/19 10:18:50;;;;;;;9.57;5.70;;;3.00;65.60;;;;;;5024416;28;20038;-59
2023/01/19 10:21:41;;;;;;;7.55;5.18;;;3.10;65.50;;;;;;5027718;28;20097;-59
2023/01/19 10:24:32;;;;;;;14.50;6.45;;;3.20;65.10;;;;;;5019143;28;20021;-59
2023/01/19 10:26:57;;;;;;;8.93;4.82;;;3.30;65.20;;;;;;5021778;28;20029;-60
2023/01/19 10:29:37;;;;;;;12.00;6.35;;;3.40;65.30;;;;;;5017170;28;20040;-59
2023/01/19 10:32:24;;;;;;;12.82;5.93;;;3.50;65.20;;;;;;5017089;28;20432;-59
2023/01/19 10:34:51;;;;;;;10.40;6.18;;;3.70;65.10;;;;;;5029713;28;20095;-60
2023/01/19 10:37:16;;;;;;;9.93;5.93;;;3.70;65.40;;;;;;5023207;28;20026;-60
2023/01/19 10:39:45;;;;;;;8.57;5.47;;;3.80;65.30;;;;;;5026436;28;20050;-60
2023/01/19 10:42:15;;;;;;;9.23;5.55;;;3.90;65.00;;;;;;5029024;28;20022;-59
2023/01/19 10:44:41;;;;;;;10.13;4.90;;;4.00;64.70;;;;;;5032020;28;20041;-60
2023/01/19 10:47:16;;;;;;;14.80;6.72;;;4.10;64.70;;;;;;5017976;28;20044;-60
2023/01/19 10:49:42;;;;;;;11.40;5.80;;;4.20;64.10;;;;;;5014815;28;20036;-60
2023/01/19 10:52:31;;;;;;;9.57;5.60;;;4.30;64.00;;;;;;5035433;28;20029;-60
2023/01/19 10:55:00;;;;;;;20.13;9.60;;;4.40;63.40;;;;;;5020542;28;20020;-59
2023/01/19 10:57:33;;;;;;;10.55;5.60;;;4.50;63.70;;;;;;5015589;28;20029;-61
2023/01/19 10:59:58;;;;;;;12.63;4.32;;;4.50;63.40;;;;;;5031719;28;20164;-59
2023/01/19 11:02:29;;;;;;;10.95;4.60;;;4.60;63.50;;;;;;5030730;28;20499;-60
2023/01/19 11:04:57;;;;;;;7.18;3.90;;;4.60;62.50;;;;;;5031995;28;20049;-59
2023/01/19 11:07:29;;;;;;;7.03;3.60;;;4.60;62.80;;;;;;5025603;28;20044;-59
2023/01/19 11:10:19;;;;;;;7.65;3.38;;;4.60;62.70;;;;;;5030404;28;20056;-59
2023/01/19 11:12:59;;;;;;;6.28;3.90;;;4.50;62.30;;;;;;5028785;28;20120;-59
2023/01/19 11:15:39;;;;;;;6.75;3.30;;;4.50;62.00;;;;;;5026379;28;20026;-59
2023/01/19 11:18:06;;;;;;;4.40;3.13;;;4.50;62.40;;;;;;5030643;28;20037;-59
2023/01/19 11:20:47;;;;;;;4.05;2.83;;;4.50;62.20;;;;;;5027267;28;20026;-60
2023/01/19 11:23:26;;;;;;;6.40;3.65;;;4.40;62.30;;;;;;5027795;28;20088;-60
2023/01/19 11:25:56;;;;;;;6.43;3.40;;;4.40;61.90;;;;;;5032741;28;20028;-59
2023/01/19 11:28:30;;;;;;;9.52;3.30;;;4.40;61.60;;;;;;5027555;28;20447;-60
2023/01/19 11:31:00;;;;;;;;;;;4.40;61.90;;;;;;5014244;28;20033;-59
2023/01/19 11:33:46;;;;;;;3.95;3.20;;;4.40;62.10;;;;;;5033820;28;19963;-60
2023/01/19 11:36:22;;;;;;;11.98;3.50;;;4.50;62.20;;;;;;5034947;28;20048;-59
2023/01/19 11:38:51;;;;;;;4.75;3.25;;;4.40;61.70;;;;;;5030978;28;20038;-59
2023/01/19 11:41:19;;;;;;;7.63;3.55;;;4.40;61.90;;;;;;5026521;28;20057;-59
2023/01/19 11:43:51;;;;;;;10.63;3.90;;;4.40;61.40;;;;;;5030349;28;20105;-59
2023/01/19 11:46:18;;;;;;;9.60;3.90;;;4.40;61.40;;;;;;5034579;28;20022;-59
2023/01/19 11:49:04;;;;;;;7.50;3.88;;;4.30;61.60;;;;;;5030371;28;20079;-59
2023/01/19 11:51:38;;;;;;;6.72;3.28;;;4.30;60.80;;;;;;5010567;28;20551;-59
2023/01/19 11:54:22;;;;;;;4.60;2.88;;;4.30;61.40;;;;;;5029148;28;20021;-60
2023/01/19 11:56:50;;;;;;;8.90;3.42;;;4.30;61.20;;;;;;5028326;28;20631;-59
2023/01/19 11:59:17;;;;;;;5.35;3.60;;;4.40;61.70;;;;;;5034467;28;20029;-60
2023/01/19 12:01:55;;;;;;;7.07;4.03;;;4.40;61.70;;;;;;5034017;28;20052;-61
2023/01/19 12:04:29;;;;;;;7.00;3.90;;;4.40;60.60;;;;;;5029456;28;20426;-60
2023/01/19 12:06:56;;;;;;;8.35;3.92;;;4.40;60.90;;;;;;5035583;28;20640;-60
2023/01/19 12:09:47;;;;;;;7.32;3.83;;;4.40;61.00;;;;;;5034334;28;20029;-60
2023/01/19 12:12:32;;;;;;;5.32;3.30;;;4.50;60.90;;;;;;5031809;28;20080;-60
2023/01/19 12:15:13;;;;;;;7.57;4.07;;;4.50;60.00;;;;;;5029401;28;20025;-60
2023/01/19 12:17:46;;;;;;;4.65;3.05;;;4.50;61.60;;;;;;5034547;28;20540;-59
2023/01/19 12:20:26;;;;;;;5.97;3.67;;;4.60;61.40;;;;;;4976509;28;20025;-60
2023/01/19 12:23:10;;;;;;;7.32;3.72;;;4.70;60.90;;;;;;5028048;28;20061;-62
2023/01/19 12:25:57;;;;;;;8.25;3.83;;;4.80;60.50;;;;;;5031710;28;20032;-63
2023/01/19 12:28:30;;;;;;;9.40;4.30;;;4.90;60.50;;;;;;5036309;28;20041;-60
2023/01/19 12:30:57;;;;;;;6.25;3.63;;;5.00;60.70;;;;;;5029215;28;20081;-62
2023/01/19 12:33:37;;;;;;;7.82;3.75;;;5.10;61.10;;;;;;5036490;28;20052;-60
2023/01/19 12:36:04;;;;;;;8.30;4.22;;;5.20;60.50;;;;;;5032294;28;20036;-59
2023/01/19 12:38:40;;;;;;;6.50;3.78;;;5.30;60.20;;;;;;5032566;28;20048;-60
2023/01/19 12:41:27;;;;;;;9.20;4.05;;;5.40;59.60;;;;;;5032999;28;20076;-60
2023/01/19 12:44:12;;;;;;;9.55;3.45;;;5.40;59.30;;;;;;5031335;28;20065;-60
2023/01/19 12:46:41;;;;;;;5.88;3.67;;;5.50;57.80;;;;;;5026924;28;20025;-60
2023/01/19 12:49:40;;;;;;;7.60;3.10;;;5.50;59.10;;;;;;5029584;28;20032;-60
2023/01/19 12:52:15;;;;;;;5.93;3.22;;;5.50;58.90;;;;;;5029050;28;20029;-60
2023/01/19 12:54:48;;;;;;;7.05;3.65;;;5.50;59.30;;;;;;5029433;28;20513;-60
2023/01/19 12:57:38;;;;;;;6.85;4.53;;;5.50;59.20;;;;;;5015598;28;20044;-62
2023/01/19 13:00:37;;;;;;;7.35;3.47;;;5.50;59.20;;;;;;5029382;28;20140;-60
2023/01/19 13:03:18;;;;;;;6.47;3.83;;;5.60;58.40;;;;;;5030604;28;20018;-61
2023/01/19 13:05:48;;;;;;;6.30;3.88;;;5.70;59.20;;;;;;5010768;28;20148;-60
2023/01/19 13:08:22;;;;;;;7.28;3.75;;;5.70;59.30;;;;;;5034907;28;20041;-61
2023/01/19 13:11:08;;;;;;;6.30;3.38;;;5.80;58.90;;;;;;5030376;28;20033;-62
2023/01/19 13:13:45;;;;;;;8.63;4.38;;;5.80;58.40;;;;;;5023773;28;20084;-63